createdAt,value
2023-02-08T00:01:28.014Z,103245.64
2023-02-08T00:03:56.712Z,103250.50
2023-02-08T00:06:25.256Z,103254.92
2023-02-08T00:08:53.696Z,103251.61
2023-02-08T00:11:22.165Z,103255.20
2023-02-08T00:13:50.604Z,103253.10
2023-02-08T00:16:19.648Z,103253.89
2023-02-08T00:18:48.210Z,103255.22
2023-02-08T00:21:18.497Z,103255.66
2023-02-08T00:23:47.379Z,103252.84
2023-02-08T00:26:16.435Z,103254.56
2023-02-08T00:28:45.355Z,103253.96
2023-02-08T00:31:14.051Z,103253.29
2023-02-08T00:33:42.909Z,103254.38
2023-02-08T00:36:11.988Z,103251.59
2023-02-08T00:38:43.668Z,103251.70
2023-02-08T00:41:12.485Z,103254.98
2023-02-08T00:43:41.253Z,103256.89
2023-02-08T00:46:11.173Z,103251.83
2023-02-08T00:48:39.629Z,103245.55
2023-02-08T00:51:13.751Z,103245.70
2023-02-08T00:53:45.069Z,103246.38
2023-02-08T00:56:15.429Z,103246.69
2023-02-08T00:58:43.920Z,103248.86
2023-02-08T01:01:13.792Z,103258.13
2023-02-08T01:03:43.801Z,103252.73
2023-02-08T01:06:18.304Z,103257.33
2023-02-08T01:08:47.336Z,103261.48
2023-02-08T01:11:25.298Z,103259.16
2023-02-08T01:13:57.543Z,103262.25
2023-02-08T01:16:32.108Z,103262.23
2023-02-08T01:19:03.660Z,103264.57
2023-02-08T01:21:35.448Z,103266.15
2023-02-08T01:24:05.543Z,103263.48
2023-02-08T01:26:35.105Z,103268.02
2023-02-08T01:29:04.659Z,103268.30
2023-02-08T01:31:36.568Z,103271.67
2023-02-08T01:34:06.120Z,103279.14
2023-02-08T01:36:35.607Z,103279.06
2023-02-08T01:39:06.172Z,103274.73
2023-02-08T01:41:38.475Z,103274.36
2023-02-08T01:44:12.754Z,103272.29
2023-02-08T01:46:43.865Z,103268.32
2023-02-08T01:49:20.868Z,103268.80
2023-02-08T01:52:01.860Z,103263.88
2023-02-08T01:54:38.645Z,103268.19
2023-02-08T01:57:08.134Z,103270.91
2023-02-08T01:59:46.120Z,103272.10
2023-02-08T02:02:17.910Z,103274.85
2023-02-08T02:04:49.018Z,103275.64
2023-02-08T02:07:19.687Z,103275.26
2023-02-08T02:09:55.291Z,103278.50
2023-02-08T02:12:25.047Z,103275.27
2023-02-08T02:14:54.224Z,103278.29
2023-02-08T02:17:23.032Z,103278.48
2023-02-08T02:20:15.920Z,103273.17
2023-02-08T02:23:09.255Z,103267.00
2023-02-08T02:25:59.364Z,103274.56
2023-02-08T02:29:02.916Z,103273.00
2023-02-08T02:31:56.038Z,103266.55
2023-02-08T02:35:00.157Z,103270.02
2023-02-08T02:37:53.558Z,103271.67
2023-02-08T02:40:40.052Z,103265.44
2023-02-08T02:43:35.076Z,103264.37
2023-02-08T02:46:07.731Z,103273.72
2023-02-08T02:48:48.529Z,103270.17
2023-02-08T02:51:16.926Z,103269.95
2023-02-08T02:53:59.481Z,103268.47
2023-02-08T02:56:38.336Z,103270.49
2023-02-08T02:59:10.480Z,103270.86
2023-02-08T03:01:40.617Z,103270.08
2023-02-08T03:04:34.481Z,103270.40
2023-02-08T03:07:14.884Z,103273.63
2023-02-08T03:10:05.352Z,103272.30
2023-02-08T03:12:58.917Z,103270.83
2023-02-08T03:15:30.320Z,103274.80
2023-02-08T03:18:09.613Z,103283.60
2023-02-08T03:20:43.451Z,103289.16
2023-02-08T03:23:22.002Z,103290.70
2023-02-08T03:26:16.330Z,103295.53
2023-02-08T03:28:58.947Z,103290.51
2023-02-08T03:31:38.464Z,103295.27
2023-02-08T03:34:41.803Z,103293.50
2023-02-08T03:37:22.538Z,103293.80
2023-02-08T03:39:56.523Z,103292.36
2023-02-08T03:42:28.326Z,103292.80
2023-02-08T03:45:02.835Z,103296.80
2023-02-08T03:47:37.670Z,103294.04
2023-02-08T03:50:11.902Z,103295.09
2023-02-08T03:52:40.814Z,103294.64
2023-02-08T03:55:14.594Z,103299.10
2023-02-08T03:57:56.978Z,103296.46
2023-02-08T04:00:25.942Z,103299.64
2023-02-08T04:03:03.184Z,103300.89
2023-02-08T04:05:31.944Z,103300.84
2023-02-08T04:08:00.967Z,103298.25
2023-02-08T04:10:29.572Z,103296.09
2023-02-08T04:12:58.051Z,103297.53
2023-02-08T04:15:27.654Z,103295.35
2023-02-08T04:17:56.178Z,103297.27
2023-02-08T04:20:24.626Z,103293.16
2023-02-08T04:22:53.113Z,103293.52
2023-02-08T04:25:21.669Z,103298.63
2023-02-08T04:27:50.198Z,103299.53
2023-02-08T04:30:18.656Z,103301.25
2023-02-08T04:32:47.185Z,103300.39
2023-02-08T04:35:15.803Z,103303.89
2023-02-08T04:37:44.303Z,103302.45
2023-02-08T04:40:12.891Z,103304.70
2023-02-08T04:42:41.294Z,103305.55
2023-02-08T04:45:10.802Z,103305.96
2023-02-08T04:47:39.303Z,103307.20
2023-02-08T04:50:07.910Z,103305.39
2023-02-08T04:52:36.484Z,103306.55
2023-02-08T04:55:05.282Z,103307.91
2023-02-08T04:57:33.988Z,103307.88
2023-02-08T05:00:02.700Z,103311.19
2023-02-08T05:02:31.292Z,103310.48
2023-02-08T05:04:59.832Z,103316.52
2023-02-08T05:07:28.372Z,103312.77
2023-02-08T05:09:56.881Z,103317.84
2023-02-08T05:12:25.491Z,103318.67
2023-02-08T05:14:53.895Z,103319.81
2023-02-08T05:17:22.391Z,103321.20
2023-02-08T05:19:50.911Z,103321.79
2023-02-08T05:22:19.418Z,103322.11
2023-02-08T05:24:47.842Z,103322.98
2023-02-08T05:27:16.298Z,103322.41
2023-02-08T05:29:44.829Z,103323.89
2023-02-08T05:32:13.432Z,103325.95
2023-02-08T05:34:41.890Z,103325.77
2023-02-08T05:37:10.577Z,103327.58
2023-02-08T05:39:39.064Z,103326.77
2023-02-08T05:42:07.549Z,103327.14
2023-02-08T05:44:36.153Z,103323.80
2023-02-08T05:47:04.766Z,103329.29
2023-02-08T05:49:33.359Z,103324.28
2023-02-08T05:52:01.812Z,103328.41
2023-02-08T05:54:30.265Z,103328.11
2023-02-08T05:56:58.644Z,103323.02
2023-02-08T05:59:27.186Z,103317.41
2023-02-08T06:01:55.763Z,103313.38
2023-02-08T06:04:24.377Z,103313.33
2023-02-08T06:06:52.853Z,103320.77
2023-02-08T06:09:21.311Z,103324.24
2023-02-08T06:11:50.224Z,103332.99
2023-02-08T06:14:18.810Z,103327.72
2023-02-08T06:16:47.309Z,103323.64
2023-02-08T06:19:15.770Z,103329.54
2023-02-08T06:21:44.410Z,103331.48
2023-02-08T06:24:13.985Z,103333.96
2023-02-08T06:26:44.337Z,103346.33
2023-02-08T06:29:12.812Z,103347.63
2023-02-08T06:31:41.419Z,103347.70
2023-02-08T06:34:10.249Z,103348.89
2023-02-08T06:36:38.684Z,103354.26
2023-02-08T06:39:07.104Z,103353.48
2023-02-08T06:41:36.105Z,103356.06
2023-02-08T06:44:04.621Z,103353.36
2023-02-08T06:46:33.017Z,103359.45
2023-02-08T06:49:01.455Z,103363.90
2023-02-08T06:51:29.930Z,103365.73
2023-02-08T06:53:58.466Z,103366.70
2023-02-08T06:56:26.929Z,103368.92
2023-02-08T06:58:57.058Z,103369.84
2023-02-08T07:01:25.880Z,103371.10
2023-02-08T07:03:54.360Z,103371.52
2023-02-08T07:06:23.104Z,103372.48
2023-02-08T07:08:51.639Z,103374.55
2023-02-08T07:11:21.555Z,103382.41
2023-02-08T07:13:51.763Z,103384.84
2023-02-08T07:16:21.107Z,103380.67
2023-02-08T07:18:49.601Z,103383.98
2023-02-08T07:21:18.074Z,103383.31
2023-02-08T07:23:46.709Z,103378.95
2023-02-08T07:26:15.467Z,103384.47
2023-02-08T07:28:44.328Z,103386.26
2023-02-08T07:31:16.625Z,103383.82
2023-02-08T07:33:45.374Z,103379.09
2023-02-08T07:36:13.966Z,103381.11
2023-02-08T07:38:42.528Z,103379.30
2023-02-08T07:41:13.582Z,103373.84
2023-02-08T07:43:43.184Z,103367.75
2023-02-08T07:46:18.363Z,103360.91
2023-02-08T07:48:49.473Z,103364.21
2023-02-08T07:51:17.996Z,103356.39
2023-02-08T07:53:46.832Z,103356.48
2023-02-08T07:56:15.573Z,103347.48
2023-02-08T07:58:44.262Z,103348.38
2023-02-08T08:01:21.950Z,103346.88
2023-02-08T08:03:52.806Z,103343.70
2023-02-08T08:06:23.276Z,103343.51
2023-02-08T08:08:52.144Z,103339.77
2023-02-08T08:11:21.744Z,103337.30
2023-02-08T08:13:51.249Z,103340.27
2023-02-08T08:16:20.855Z,103334.71
2023-02-08T08:18:49.535Z,103328.38
2023-02-08T08:21:18.063Z,103325.52
2023-02-08T08:23:47.576Z,103328.88
2023-02-08T08:26:18.982Z,103330.31
2023-02-08T08:28:48.377Z,103337.55
2023-02-08T08:31:20.365Z,103341.51
2023-02-08T08:33:49.885Z,103344.86
2023-02-08T08:36:18.800Z,103352.98
2023-02-08T08:38:47.310Z,103352.01
2023-02-08T08:41:18.291Z,103350.13
2023-02-08T08:43:49.187Z,103352.47
2023-02-08T08:46:18.142Z,103349.55
2023-02-08T08:48:47.109Z,103348.34
2023-02-08T08:51:15.658Z,103348.41
2023-02-08T08:53:44.252Z,103351.44
2023-02-08T08:56:12.837Z,103356.08
2023-02-08T08:58:41.549Z,103363.20
2023-02-08T09:01:10.021Z,103362.45
2023-02-08T09:03:38.547Z,103361.44
2023-02-08T09:06:07.108Z,103362.98
2023-02-08T09:08:35.551Z,103366.49
2023-02-08T09:11:08.081Z,103368.50
2023-02-08T09:13:37.387Z,103369.66
2023-02-08T09:16:11.449Z,103362.39
2023-02-08T09:18:40.526Z,103352.95
2023-02-08T09:21:15.989Z,103355.18
2023-02-08T09:23:47.699Z,103350.85
2023-02-08T09:26:18.249Z,103354.45
2023-02-08T09:28:47.051Z,103365.53
2023-02-08T09:31:21.507Z,103372.02
2023-02-08T09:33:52.292Z,103367.43
2023-02-08T09:36:23.242Z,103373.42
2023-02-08T09:39:00.536Z,103376.00
2023-02-08T09:42:02.396Z,103381.39
2023-02-08T09:44:46.104Z,103372.54
2023-02-08T09:47:20.407Z,103373.08
2023-02-08T09:50:02.529Z,103370.45
2023-02-08T09:52:48.538Z,103365.96
2023-02-08T09:55:32.568Z,103361.13
2023-02-08T09:58:08.497Z,103358.81
2023-02-08T10:00:42.725Z,103359.44
2023-02-08T10:03:28.546Z,103360.88
2023-02-08T10:05:57.365Z,103358.41
2023-02-08T10:08:35.007Z,103359.02
2023-02-08T10:11:09.829Z,103360.24
2023-02-08T10:13:42.609Z,103356.24
2023-02-08T10:16:44.161Z,103358.50
2023-02-08T10:19:21.783Z,103356.15
2023-02-08T10:22:15.920Z,103355.70
2023-02-08T10:25:19.662Z,103357.27
2023-02-08T10:28:04.811Z,103352.89
2023-02-08T10:30:50.285Z,103347.09
2023-02-08T10:34:02.307Z,103343.95
2023-02-08T10:36:42.676Z,103339.81
2023-02-08T10:39:24.882Z,103337.38
2023-02-08T10:41:53.532Z,103333.98
2023-02-08T10:44:36.365Z,103330.34
2023-02-08T10:47:17.345Z,103326.02
2023-02-08T10:49:58.982Z,103322.30
2023-02-08T10:52:27.846Z,103321.39
2023-02-08T10:54:59.673Z,103324.47
2023-02-08T10:57:34.225Z,103325.80
2023-02-08T11:00:07.509Z,103317.87
2023-02-08T11:02:41.514Z,103317.71
2023-02-08T11:05:18.450Z,103316.35
2023-02-08T11:07:47.310Z,103310.67
2023-02-08T11:10:18.662Z,103308.67
2023-02-08T11:13:05.894Z,103310.59
2023-02-08T11:15:47.110Z,103311.27
2023-02-08T11:18:33.379Z,103310.48
2023-02-08T11:21:21.763Z,103302.64
2023-02-08T11:23:55.785Z,103301.64
2023-02-08T11:26:37.658Z,103295.63
2023-02-08T11:29:15.193Z,103291.52
2023-02-08T11:32:02.986Z,103296.13
2023-02-08T11:34:39.035Z,103296.39
2023-02-08T11:37:21.251Z,103298.83
2023-02-08T11:39:55.521Z,103294.71
2023-02-08T11:42:31.496Z,103301.02
2023-02-08T11:45:01.193Z,103293.11
2023-02-08T11:47:33.420Z,103294.95
2023-02-08T11:50:05.833Z,103295.83
2023-02-08T11:52:42.921Z,103295.54
2023-02-08T11:55:13.609Z,103299.64
2023-02-08T11:58:01.615Z,103299.03
2023-02-08T12:00:37.417Z,103294.30
2023-02-08T12:03:15.178Z,103295.56
2023-02-08T12:06:08.133Z,103291.50
2023-02-08T12:08:54.793Z,103294.80
2023-02-08T12:11:46.666Z,103288.08
2023-02-08T12:14:53.096Z,103283.72
2023-02-08T12:17:37.330Z,103288.11
2023-02-08T12:20:25.987Z,103280.77
2023-02-08T12:23:25.295Z,103280.03
2023-02-08T12:26:05.630Z,103270.10
2023-02-08T12:28:51.514Z,103268.48
2023-02-08T12:31:36.030Z,103259.11
2023-02-08T12:34:28.749Z,103262.07
2023-02-08T12:37:35.161Z,103261.84
2023-02-08T12:40:32.392Z,103260.27
2023-02-08T12:43:14.964Z,103245.46
2023-02-08T12:46:01.959Z,103245.31
2023-02-08T12:49:13.088Z,103248.27
2023-02-08T12:51:47.459Z,103252.14
2023-02-08T12:54:26.985Z,103250.79
2023-02-08T12:57:02.405Z,103246.48
2023-02-08T12:59:54.402Z,103246.66
2023-02-08T13:02:26.415Z,103243.41
2023-02-08T13:05:00.564Z,103243.99
2023-02-08T13:08:18.210Z,103248.96
2023-02-08T13:10:53.671Z,103248.15
2023-02-08T13:13:31.516Z,103253.15
2023-02-08T13:16:17.126Z,103248.95
2023-02-08T13:18:55.973Z,103244.65
2023-02-08T13:21:32.598Z,103245.30
2023-02-08T13:24:01.315Z,103244.80
2023-02-08T13:26:35.485Z,103245.43
2023-02-08T13:29:05.142Z,103236.70
2023-02-08T13:31:42.185Z,103241.51
2023-02-08T13:34:30.707Z,103236.76
2023-02-08T13:37:16.597Z,103232.48
2023-02-08T13:40:04.402Z,103232.91
2023-02-08T13:42:43.359Z,103229.79
2023-02-08T13:45:26.612Z,103229.70
2023-02-08T13:48:04.646Z,103227.66
2023-02-08T13:50:51.018Z,103228.80
2023-02-08T13:53:39.690Z,103225.67
2023-02-08T13:56:13.736Z,103223.19
2023-02-08T13:58:48.366Z,103224.06
2023-02-08T14:01:23.331Z,103222.95
2023-02-08T14:04:10.086Z,103219.08
2023-02-08T14:06:55.979Z,103218.07
2023-02-08T14:09:46.879Z,103216.03
2023-02-08T14:12:23.988Z,103216.40
2023-02-08T14:15:30.359Z,103222.25
2023-02-08T14:18:00.991Z,103216.75
2023-02-08T14:20:34.061Z,103212.13
2023-02-08T14:23:20.928Z,103216.52
2023-02-08T14:25:51.987Z,103213.89
2023-02-08T14:28:35.986Z,103208.54
2023-02-08T14:31:07.937Z,103212.23
2023-02-08T14:33:40.814Z,103208.24
2023-02-08T14:36:30.785Z,103199.70
2023-02-08T14:39:26.415Z,103197.64
2023-02-08T14:42:05.766Z,103199.30
2023-02-08T14:44:43.648Z,103198.33
2023-02-08T14:47:32.208Z,103197.03
2023-02-08T14:50:25.027Z,103192.50
2023-02-08T14:53:01.584Z,103192.08
2023-02-08T14:55:54.759Z,103188.20
2023-02-08T14:58:33.232Z,103192.48
2023-02-08T15:01:13.978Z,103188.03
2023-02-08T15:03:43.835Z,103189.09
2023-02-08T15:06:24.094Z,103184.84
2023-02-08T15:08:54.477Z,103185.52
2023-02-08T15:11:27.048Z,103182.95
2023-02-08T15:14:00.953Z,103175.17
2023-02-08T15:16:41.199Z,103174.90
2023-02-08T15:19:21.396Z,103173.70
2023-02-08T15:21:50.038Z,103170.83
2023-02-08T15:24:30.056Z,103168.27
2023-02-08T15:26:58.658Z,103164.08
2023-02-08T15:29:42.757Z,103161.40
2023-02-08T15:32:16.906Z,103159.73
2023-02-08T15:34:52.569Z,103155.48
2023-02-08T15:37:21.965Z,103153.56
2023-02-08T15:39:58.394Z,103150.21
2023-02-08T15:42:29.941Z,103143.32
2023-02-08T15:45:00.881Z,103145.25
2023-02-08T15:47:33.709Z,103147.45
2023-02-08T15:50:05.666Z,103141.20
2023-02-08T15:52:37.093Z,103139.23
2023-02-08T15:55:12.797Z,103140.64
2023-02-08T15:57:44.427Z,103140.69
2023-02-08T16:00:21.289Z,103136.66
2023-02-08T16:02:56.304Z,103133.64
2023-02-08T16:05:28.625Z,103130.77
2023-02-08T16:07:58.080Z,103133.63
2023-02-08T16:10:40.846Z,103135.34
2023-02-08T16:13:31.957Z,103130.11
2023-02-08T16:16:21.441Z,103133.73
2023-02-08T16:19:05.633Z,103129.81
2023-02-08T16:21:39.809Z,103130.71
2023-02-08T16:24:11.126Z,103125.30
2023-02-08T16:26:44.708Z,103125.36
2023-02-08T16:29:27.265Z,103125.33
2023-02-08T16:32:07.922Z,103126.93
2023-02-08T16:34:38.968Z,103132.88
2023-02-08T16:37:21.041Z,103129.41
2023-02-08T16:39:54.244Z,103133.73
2023-02-08T16:42:27.077Z,103134.89
2023-02-08T16:45:01.406Z,103135.18
2023-02-08T16:47:42.123Z,103134.83
2023-02-08T16:50:25.424Z,103135.34
2023-02-08T16:53:03.157Z,103137.65
2023-02-08T16:55:34.143Z,103137.49
2023-02-08T16:58:02.680Z,103137.77
2023-02-08T17:00:34.643Z,103140.05
2023-02-08T17:03:03.277Z,103139.05
2023-02-08T17:05:37.933Z,103134.92
2023-02-08T17:08:12.950Z,103135.59
2023-02-08T17:10:42.521Z,103136.20
2023-02-08T17:13:21.221Z,103134.79
2023-02-08T17:15:51.357Z,103137.69
2023-02-08T17:18:21.452Z,103139.20
2023-02-08T17:20:50.819Z,103135.14
2023-02-08T17:23:19.274Z,103131.07
2023-02-08T17:25:47.802Z,103123.86
2023-02-08T17:28:19.426Z,103122.08
2023-02-08T17:30:49.409Z,103125.52
2023-02-08T17:33:18.764Z,103123.23
2023-02-08T17:35:50.514Z,103117.76
2023-02-08T17:38:20.597Z,103116.23
2023-02-08T17:40:49.110Z,103118.76
2023-02-08T17:43:17.925Z,103114.34
2023-02-08T17:45:47.064Z,103116.15
2023-02-08T17:48:16.275Z,103115.14
2023-02-08T17:50:51.115Z,103119.51
2023-02-08T17:53:20.205Z,103116.65
2023-02-08T17:55:48.652Z,103114.44
2023-02-08T17:58:18.390Z,103110.06
2023-02-08T18:00:47.027Z,103108.86
2023-02-08T18:03:17.436Z,103107.30
2023-02-08T18:05:45.850Z,103108.27
2023-02-08T18:08:14.506Z,103104.34
2023-02-08T18:10:43.345Z,103102.93
2023-02-08T18:13:12.004Z,103107.09
2023-02-08T18:15:40.535Z,103109.04
2023-02-08T18:18:09.259Z,103110.34
2023-02-08T18:20:37.696Z,103104.98
2023-02-08T18:23:06.213Z,103110.79
2023-02-08T18:25:34.653Z,103108.83
2023-02-08T18:28:03.149Z,103098.59
2023-02-08T18:30:32.567Z,103098.50
2023-02-08T18:33:01.058Z,103101.38
2023-02-08T18:35:29.495Z,103099.95
2023-02-08T18:37:58.008Z,103096.70
2023-02-08T18:40:26.572Z,103097.60
2023-02-08T18:42:55.234Z,103096.19
2023-02-08T18:45:23.708Z,103096.88
2023-02-08T18:47:52.253Z,103093.67
2023-02-08T18:50:20.667Z,103092.44
2023-02-08T18:52:49.095Z,103090.92
2023-02-08T18:55:17.572Z,103088.00
2023-02-08T18:57:49.065Z,103086.27
2023-02-08T19:00:17.652Z,103085.20
2023-02-08T19:02:46.814Z,103084.39
2023-02-08T19:05:15.659Z,103077.02
2023-02-08T19:07:44.156Z,103075.55
2023-02-08T19:10:12.605Z,103074.44
2023-02-08T19:12:41.867Z,103070.31
2023-02-08T19:15:10.434Z,103062.09
2023-02-08T19:17:38.864Z,103057.35
2023-02-08T19:20:08.290Z,103052.39
2023-02-08T19:22:36.726Z,103043.42
2023-02-08T19:25:05.609Z,103041.11
2023-02-08T19:27:34.267Z,103034.52
2023-02-08T19:30:04.995Z,103031.45
2023-02-08T19:32:33.708Z,103026.45
2023-02-08T19:35:02.287Z,103019.42
2023-02-08T19:37:30.767Z,103020.22
2023-02-08T19:39:59.239Z,103018.88
2023-02-08T19:42:27.736Z,103022.18
2023-02-08T19:44:56.719Z,103015.28
2023-02-08T19:47:43.429Z,103012.59
2023-02-08T19:50:14.648Z,103015.04
2023-02-08T19:52:43.737Z,103015.92
2023-02-08T19:55:12.294Z,103009.59
2023-02-08T19:57:40.969Z,103005.57
2023-02-08T20:00:22.612Z,103005.23
2023-02-08T20:02:52.214Z,103003.31
2023-02-08T20:05:21.032Z,103000.23
2023-02-08T20:07:49.549Z,102997.53
2023-02-08T20:10:18.052Z,102997.03
2023-02-08T20:12:46.461Z,102993.27
2023-02-08T20:15:14.917Z,102994.86
2023-02-08T20:17:44.862Z,102992.08
2023-02-08T20:20:13.387Z,102987.59
2023-02-08T20:22:41.823Z,102987.19
2023-02-08T20:25:10.252Z,102983.31
2023-02-08T20:27:38.952Z,102978.28
2023-02-08T20:30:07.816Z,102973.36
2023-02-08T20:32:36.439Z,102968.20
2023-02-08T20:35:05.061Z,102966.25
2023-02-08T20:37:33.982Z,102958.78
2023-02-08T20:40:03.937Z,102964.02
2023-02-08T20:42:32.360Z,102964.54
2023-02-08T20:45:00.982Z,102963.52
2023-02-08T20:47:31.882Z,102962.31
2023-02-08T20:50:05.029Z,102961.20
2023-02-08T20:52:38.784Z,102964.77
2023-02-08T20:55:08.557Z,102967.48
2023-02-08T20:57:37.073Z,102968.73
2023-02-08T21:00:06.324Z,102968.83
2023-02-08T21:02:35.009Z,102972.89
2023-02-08T21:05:04.107Z,102970.73
2023-02-08T21:07:33.045Z,102968.73
2023-02-08T21:10:04.189Z,102961.38
2023-02-08T21:12:33.477Z,102958.90
2023-02-08T21:15:02.151Z,102954.73
2023-02-08T21:17:30.866Z,102944.42
2023-02-08T21:19:59.482Z,102936.90
2023-02-08T21:22:27.855Z,102933.82
2023-02-08T21:24:56.333Z,102931.16
2023-02-08T21:27:24.874Z,102929.60
2023-02-08T21:29:53.378Z,102923.11
2023-02-08T21:32:21.897Z,102927.03
2023-02-08T21:34:52.496Z,102924.57
2023-02-08T21:37:20.944Z,102925.27
2023-02-08T21:39:49.554Z,102920.88
2023-02-08T21:42:18.003Z,102923.33
2023-02-08T21:44:46.442Z,102915.31
2023-02-08T21:47:14.842Z,102916.98
2023-02-08T21:50:01.990Z,102913.85
2023-02-08T21:52:49.153Z,102909.08
2023-02-08T21:55:17.773Z,102907.07
2023-02-08T21:57:46.334Z,102901.83
2023-02-08T22:00:15.218Z,102901.16
2023-02-08T22:02:43.998Z,102900.15
2023-02-08T22:05:13.670Z,102899.48
2023-02-08T22:07:56.929Z,102898.23
2023-02-08T22:10:30.963Z,102895.25
2023-02-08T22:12:59.678Z,102892.34
2023-02-08T22:15:30.277Z,102890.44
2023-02-08T22:18:01.893Z,102888.34
2023-02-08T22:20:31.041Z,102881.60
2023-02-08T22:22:59.618Z,102881.39
2023-02-08T22:25:28.108Z,102881.75
2023-02-08T22:27:56.539Z,102878.27
2023-02-08T22:30:25.713Z,102877.33
2023-02-08T22:32:54.428Z,102876.21
2023-02-08T22:35:22.974Z,102875.22
2023-02-08T22:37:51.586Z,102873.30
2023-02-08T22:40:20.509Z,102874.58
2023-02-08T22:42:49.000Z,102874.95
2023-02-08T22:45:17.586Z,102873.04
2023-02-08T22:47:46.291Z,102866.95
2023-02-08T22:50:15.553Z,102861.71
2023-02-08T22:52:43.998Z,102859.64
2023-02-08T22:55:12.775Z,102859.33
2023-02-08T22:57:43.692Z,102859.83
2023-02-08T23:00:15.105Z,102856.89
2023-02-08T23:02:43.873Z,102861.93
2023-02-08T23:05:13.201Z,102861.45
2023-02-08T23:07:41.883Z,102860.78
2023-02-08T23:10:11.998Z,102862.08
2023-02-08T23:12:40.561Z,102864.14
2023-02-08T23:15:11.247Z,102865.58
2023-02-08T23:17:49.011Z,102861.88
2023-02-08T23:20:17.628Z,102858.24
2023-02-08T23:22:46.133Z,102858.14
2023-02-08T23:25:15.708Z,102851.83
2023-02-08T23:27:44.244Z,102850.89
2023-02-08T23:30:13.072Z,102850.42
2023-02-08T23:32:42.260Z,102850.61
2023-02-08T23:35:11.116Z,102851.73
2023-02-08T23:37:39.691Z,102852.20
2023-02-08T23:40:11.577Z,102851.75
2023-02-08T23:42:40.052Z,102854.06
2023-02-08T23:45:08.861Z,102847.84
2023-02-08T23:47:38.050Z,102846.65
2023-02-08T23:50:08.138Z,102839.74
2023-02-08T23:52:37.467Z,102836.70
2023-02-08T23:55:06.591Z,102833.38
2023-02-08T23:57:37.826Z,102823.95
